sensor_id;sensor_type;location;lat;lon;timestamp;P1;durP1;ratioP1;P2;durP2;ratioP2
62880;SDS011;48969;49.934;8.596;2023-04-01T00:02:07;5.63;;;2.13;;
62880;SDS011;48969;49.934;8.596;2023-04-01T00:04:32;6.63;;;2.38;;
62880;SDS011;48969;49.934;8.596;2023-04-01T00:06:57;6.38;;;1.98;;
62880;SDS011;48969;49.934;8.596;2023-04-01T00:09:22;6.35;;;1.80;;
62880;SDS011;48969;49.934;8.596;2023-04-01T00:11:48;7.82;;;1.92;;
62880;SDS011;48969;49.934;8.596;2023-04-01T00:14:13;6.28;;;2.30;;
62880;SDS011;48969;49.934;8.596;2023-04-01T00:16:38;5.78;;;1.63;;
62880;SDS011;48969;49.934;8.596;2023-04-01T00:19:03;4.80;;;1.83;;
62880;SDS011;48969;49.934;8.596;2023-04-01T00:21:29;6.88;;;1.90;;
62880;SDS011;48969;49.934;8.596;2023-04-01T00:23:54;8.35;;;1.90;;
62880;SDS011;48969;49.934;8.596;2023-04-01T00:26:19;5.53;;;1.60;;
62880;SDS011;48969;49.934;8.596;2023-04-01T00:28:46;8.40;;;1.73;;
62880;SDS011;48969;49.934;8.596;2023-04-01T00:31:12;6.30;;;1.55;;
62880;SDS011;48969;49.934;8.596;2023-04-01T00:33:37;8.15;;;2.20;;
62880;SDS011;48969;49.934;8.596;2023-04-01T00:38:31;6.10;;;1.90;;
62880;SDS011;48969;49.934;8.596;2023-04-01T00:40:57;7.50;;;1.98;;
62880;SDS011;48969;49.934;8.596;2023-04-01T00:43:23;6.13;;;1.90;;
62880;SDS011;48969;49.934;8.596;2023-04-01T00:45:48;6.55;;;1.73;;
62880;SDS011;48969;49.934;8.596;2023-04-01T00:48:18;6.15;;;1.65;;
62880;SDS011;48969;49.934;8.596;2023-04-01T00:50:47;6.32;;;1.90;;
62880;SDS011;48969;49.934;8.596;2023-04-01T00:53:13;6.32;;;1.73;;
62880;SDS011;48969;49.934;8.596;2023-04-01T00:55:41;7.45;;;1.52;;
62880;SDS011;48969;49.934;8.596;2023-04-01T00:58:08;6.30;;;1.83;;
62880;SDS011;48969;49.934;8.596;2023-04-01T01:00:34;6.45;;;1.85;;
62880;SDS011;48969;49.934;8.596;2023-04-01T01:03:00;7.07;;;1.75;;
62880;SDS011;48969;49.934;8.596;2023-04-01T01:05:34;4.57;;;1.42;;
62880;SDS011;48969;49.934;8.596;2023-04-01T01:11:06;6.38;;;1.73;;
62880;SDS011;48969;49.934;8.596;2023-04-01T01:13:48;6.88;;;1.88;;
62880;SDS011;48969;49.934;8.596;2023-04-01T01:18:44;5.10;;;1.50;;
62880;SDS011;48969;49.934;8.596;2023-04-01T01:28:57;7.70;;;2.00;;
62880;SDS011;48969;49.934;8.596;2023-04-01T01:31:30;6.35;;;1.50;;
62880;SDS011;48969;49.934;8.596;2023-04-01T01:34:11;4.88;;;1.50;;
62880;SDS011;48969;49.934;8.596;2023-04-01T01:36:41;7.53;;;1.85;;
62880;SDS011;48969;49.934;8.596;2023-04-01T01:39:07;3.92;;;1.48;;
62880;SDS011;48969;49.934;8.596;2023-04-01T01:41:33;6.55;;;1.48;;
62880;SDS011;48969;49.934;8.596;2023-04-01T01:43:59;5.47;;;1.75;;
62880;SDS011;48969;49.934;8.596;2023-04-01T01:46:26;6.97;;;2.25;;
62880;SDS011;48969;49.934;8.596;2023-04-01T01:48:52;4.78;;;1.98;;
62880;SDS011;48969;49.934;8.596;2023-04-01T01:51:18;5.43;;;2.10;;
62880;SDS011;48969;49.934;8.596;2023-04-01T01:53:43;6.05;;;1.42;;
62880;SDS011;48969;49.934;8.596;2023-04-01T01:56:10;4.82;;;1.65;;
62880;SDS011;48969;49.934;8.596;2023-04-01T01:58:45;4.75;;;1.73;;
62880;SDS011;48969;49.934;8.596;2023-04-01T02:01:13;4.85;;;1.85;;
62880;SDS011;48969;49.934;8.596;2023-04-01T02:03:39;5.63;;;1.30;;
62880;SDS011;48969;49.934;8.596;2023-04-01T02:06:07;4.55;;;1.48;;
62880;SDS011;48969;49.934;8.596;2023-04-01T02:11:13;5.53;;;1.52;;
62880;SDS011;48969;49.934;8.596;2023-04-01T02:13:41;5.35;;;1.50;;
62880;SDS011;48969;49.934;8.596;2023-04-01T02:16:15;5.00;;;1.70;;
62880;SDS011;48969;49.934;8.596;2023-04-01T02:18:41;6.70;;;1.98;;
62880;SDS011;48969;49.934;8.596;2023-04-01T02:21:08;6.63;;;1.65;;
62880;SDS011;48969;49.934;8.596;2023-04-01T02:23:34;7.72;;;1.70;;
62880;SDS011;48969;49.934;8.596;2023-04-01T02:26:00;4.65;;;1.70;;
62880;SDS011;48969;49.934;8.596;2023-04-01T02:28:26;6.50;;;2.05;;
62880;SDS011;48969;49.934;8.596;2023-04-01T02:30:52;5.55;;;1.48;;
62880;SDS011;48969;49.934;8.596;2023-04-01T02:33:18;6.47;;;1.50;;
62880;SDS011;48969;49.934;8.596;2023-04-01T02:35:44;3.05;;;1.20;;
62880;SDS011;48969;49.934;8.596;2023-04-01T02:38:09;7.80;;;1.60;;
62880;SDS011;48969;49.934;8.596;2023-04-01T02:40:41;4.53;;;1.70;;
62880;SDS011;48969;49.934;8.596;2023-04-01T02:43:06;9.10;;;2.05;;
62880;SDS011;48969;49.934;8.596;2023-04-01T02:45:32;5.03;;;1.60;;
62880;SDS011;48969;49.934;8.596;2023-04-01T02:47:57;4.87;;;1.80;;
62880;SDS011;48969;49.934;8.596;2023-04-01T02:50:22;4.53;;;1.67;;
62880;SDS011;48969;49.934;8.596;2023-04-01T02:52:47;4.22;;;1.38;;
62880;SDS011;48969;49.934;8.596;2023-04-01T02:55:12;6.43;;;1.93;;
62880;SDS011;48969;49.934;8.596;2023-04-01T02:57:38;6.13;;;1.45;;
62880;SDS011;48969;49.934;8.596;2023-04-01T03:00:03;4.85;;;1.40;;
62880;SDS011;48969;49.934;8.596;2023-04-01T03:02:28;5.93;;;1.77;;
62880;SDS011;48969;49.934;8.596;2023-04-01T03:04:53;7.38;;;2.10;;
62880;SDS011;48969;49.934;8.596;2023-04-01T03:07:19;5.10;;;1.65;;
62880;SDS011;48969;49.934;8.596;2023-04-01T03:09:44;5.38;;;1.60;;
62880;SDS011;48969;49.934;8.596;2023-04-01T03:12:09;5.00;;;1.83;;
62880;SDS011;48969;49.934;8.596;2023-04-01T03:14:35;4.20;;;1.73;;
62880;SDS011;48969;49.934;8.596;2023-04-01T03:17:00;9.02;;;2.10;;
62880;SDS011;48969;49.934;8.596;2023-04-01T03:19:25;4.90;;;1.42;;
62880;SDS011;48969;49.934;8.596;2023-04-01T03:21:50;6.80;;;1.65;;
62880;SDS011;48969;49.934;8.596;2023-04-01T03:24:15;6.68;;;1.60;;
62880;SDS011;48969;49.934;8.596;2023-04-01T03:26:41;5.93;;;1.70;;
62880;SDS011;48969;49.934;8.596;2023-04-01T03:29:06;5.70;;;1.60;;
62880;SDS011;48969;49.934;8.596;2023-04-01T03:31:31;5.40;;;1.73;;
62880;SDS011;48969;49.934;8.596;2023-04-01T03:33:56;4.32;;;1.40;;
62880;SDS011;48969;49.934;8.596;2023-04-01T03:36:21;4.75;;;1.50;;
62880;SDS011;48969;49.934;8.596;2023-04-01T03:38:47;7.35;;;2.13;;
62880;SDS011;48969;49.934;8.596;2023-04-01T03:41:12;4.07;;;1.73;;
62880;SDS011;48969;49.934;8.596;2023-04-01T03:43:38;6.72;;;1.70;;
62880;SDS011;48969;49.934;8.596;2023-04-01T03:46:03;4.93;;;1.40;;
62880;SDS011;48969;49.934;8.596;2023-04-01T03:48:28;5.05;;;2.00;;
62880;SDS011;48969;49.934;8.596;2023-04-01T03:50:54;7.82;;;1.83;;
62880;SDS011;48969;49.934;8.596;2023-04-01T03:53:19;7.15;;;1.92;;
62880;SDS011;48969;49.934;8.596;2023-04-01T03:55:44;4.85;;;1.70;;
62880;SDS011;48969;49.934;8.596;2023-04-01T03:58:10;7.10;;;1.80;;
62880;SDS011;48969;49.934;8.596;2023-04-01T04:00:35;7.90;;;1.67;;
62880;SDS011;48969;49.934;8.596;2023-04-01T04:03:00;4.68;;;1.50;;
62880;SDS011;48969;49.934;8.596;2023-04-01T04:05:26;6.03;;;1.65;;
62880;SDS011;48969;49.934;8.596;2023-04-01T04:07:51;5.38;;;2.00;;
62880;SDS011;48969;49.934;8.596;2023-04-01T04:10:17;5.68;;;2.13;;
62880;SDS011;48969;49.934;8.596;2023-04-01T04:12:42;5.70;;;1.42;;
62880;SDS011;48969;49.934;8.596;2023-04-01T04:15:07;5.88;;;1.70;;
62880;SDS011;48969;49.934;8.596;2023-04-01T04:17:33;4.47;;;1.40;;
62880;SDS011;48969;49.934;8.596;2023-04-01T04:19:58;7.00;;;2.03;;
62880;SDS011;48969;49.934;8.596;2023-04-01T04:22:23;4.10;;;1.50;;
62880;SDS011;48969;49.934;8.596;2023-04-01T04:24:49;4.25;;;1.67;;
62880;SDS011;48969;49.934;8.596;2023-04-01T04:27:14;4.57;;;1.50;;
62880;SDS011;48969;49.934;8.596;2023-04-01T04:29:39;4.50;;;1.48;;
62880;SDS011;48969;49.934;8.596;2023-04-01T04:32:04;5.72;;;1.55;;
62880;SDS011;48969;49.934;8.596;2023-04-01T04:34:30;6.03;;;1.60;;
62880;SDS011;48969;49.934;8.596;2023-04-01T04:36:55;6.83;;;1.63;;
62880;SDS011;48969;49.934;8.596;2023-04-01T04:39:20;6.35;;;1.90;;
62880;SDS011;48969;49.934;8.596;2023-04-01T04:41:45;5.95;;;1.65;;
62880;SDS011;48969;49.934;8.596;2023-04-01T04:44:10;3.97;;;1.30;;
62880;SDS011;48969;49.934;8.596;2023-04-01T04:46:35;4.13;;;1.70;;
62880;SDS011;48969;49.934;8.596;2023-04-01T04:49:02;4.13;;;1.73;;
62880;SDS011;48969;49.934;8.596;2023-04-01T04:51:27;6.10;;;1.75;;
62880;SDS011;48969;49.934;8.596;2023-04-01T04:53:52;4.70;;;1.50;;
62880;SDS011;48969;49.934;8.596;2023-04-01T04:56:18;5.15;;;1.50;;
62880;SDS011;48969;49.934;8.596;2023-04-01T04:58:44;6.25;;;1.73;;
62880;SDS011;48969;49.934;8.596;2023-04-01T05:01:10;8.45;;;2.15;;
62880;SDS011;48969;49.934;8.596;2023-04-01T05:03:36;4.90;;;1.50;;
62880;SDS011;48969;49.934;8.596;2023-04-01T05:06:01;4.40;;;1.83;;
62880;SDS011;48969;49.934;8.596;2023-04-01T05:08:27;5.20;;;1.70;;
62880;SDS011;48969;49.934;8.596;2023-04-01T05:10:52;4.40;;;1.48;;
62880;SDS011;48969;49.934;8.596;2023-04-01T05:13:17;6.53;;;2.17;;
62880;SDS011;48969;49.934;8.596;2023-04-01T05:15:43;5.68;;;1.50;;
62880;SDS011;48969;49.934;8.596;2023-04-01T05:18:08;4.88;;;1.55;;
62880;SDS011;48969;49.934;8.596;2023-04-01T05:20:33;4.80;;;1.70;;
62880;SDS011;48969;49.934;8.596;2023-04-01T05:22:59;5.93;;;1.50;;
62880;SDS011;48969;49.934;8.596;2023-04-01T05:25:24;6.80;;;1.60;;
62880;SDS011;48969;49.934;8.596;2023-04-01T05:27:50;7.57;;;1.65;;
62880;SDS011;48969;49.934;8.596;2023-04-01T05:30:15;4.22;;;1.70;;
62880;SDS011;48969;49.934;8.596;2023-04-01T05:32:40;4.10;;;1.25;;
62880;SDS011;48969;49.934;8.596;2023-04-01T05:35:06;4.35;;;1.65;;
62880;SDS011;48969;49.934;8.596;2023-04-01T05:37:33;3.50;;;1.33;;
62880;SDS011;48969;49.934;8.596;2023-04-01T05:39:58;4.25;;;1.25;;
62880;SDS011;48969;49.934;8.596;2023-04-01T05:42:23;4.38;;;1.30;;
62880;SDS011;48969;49.934;8.596;2023-04-01T05:44:48;5.50;;;1.80;;
62880;SDS011;48969;49.934;8.596;2023-04-01T05:47:14;4.93;;;1.40;;
62880;SDS011;48969;49.934;8.596;2023-04-01T05:49:39;3.72;;;1.45;;
62880;SDS011;48969;49.934;8.596;2023-04-01T05:52:04;3.50;;;1.42;;
62880;SDS011;48969;49.934;8.596;2023-04-01T05:54:30;3.50;;;1.40;;
62880;SDS011;48969;49.934;8.596;2023-04-01T05:56:55;5.17;;;1.37;;
62880;SDS011;48969;49.934;8.596;2023-04-01T05:59:20;3.72;;;1.35;;
62880;SDS011;48969;49.934;8.596;2023-04-01T06:01:45;2.72;;;1.20;;
62880;SDS011;48969;49.934;8.596;2023-04-01T06:04:12;2.33;;;1.20;;
62880;SDS011;48969;49.934;8.596;2023-04-01T06:06:38;4.60;;;1.52;;
62880;SDS011;48969;49.934;8.596;2023-04-01T06:09:17;3.15;;;1.20;;
62880;SDS011;48969;49.934;8.596;2023-04-01T06:16:58;3.75;;;1.45;;
62880;SDS011;48969;49.934;8.596;2023-04-01T06:20:28;2.92;;;1.35;;
62880;SDS011;48969;49.934;8.596;2023-04-01T06:22:23;3.97;;;1.42;;
62880;SDS011;48969;49.934;8.596;2023-04-01T06:32:37;2.85;;;1.60;;
62880;SDS011;48969;49.934;8.596;2023-04-01T06:35:24;3.90;;;1.73;;
62880;SDS011;48969;49.934;8.596;2023-04-01T06:45:47;3.92;;;1.30;;
62880;SDS011;48969;49.934;8.596;2023-04-01T06:51:00;3.13;;;1.02;;
62880;SDS011;48969;49.934;8.596;2023-04-01T06:58:27;3.28;;;1.20;;
62880;SDS011;48969;49.934;8.596;2023-04-01T07:00:54;4.50;;;1.17;;
62880;SDS011;48969;49.934;8.596;2023-04-01T07:06:03;4.40;;;1.50;;
62880;SDS011;48969;49.934;8.596;2023-04-01T07:08:29;3.88;;;1.02;;
62880;SDS011;48969;49.934;8.596;2023-04-01T07:15:58;3.03;;;1.10;;
62880;SDS011;48969;49.934;8.596;2023-04-01T07:18:48;2.67;;;1.02;;
62880;SDS011;48969;49.934;8.596;2023-04-01T07:21:13;4.10;;;1.30;;
62880;SDS011;48969;49.934;8.596;2023-04-01T07:23:40;2.53;;;1.15;;
62880;SDS011;48969;49.934;8.596;2023-04-01T07:26:18;2.85;;;1.10;;
62880;SDS011;48969;49.934;8.596;2023-04-01T07:28:44;4.50;;;1.38;;
62880;SDS011;48969;49.934;8.596;2023-04-01T07:31:18;4.32;;;1.20;;
62880;SDS011;48969;49.934;8.596;2023-04-01T07:33:53;3.60;;;1.08;;
62880;SDS011;48969;49.934;8.596;2023-04-01T07:38:53;3.35;;;1.05;;
62880;SDS011;48969;49.934;8.596;2023-04-01T07:54:13;1.60;;;0.80;;
62880;SDS011;48969;49.934;8.596;2023-04-01T07:56:43;3.63;;;0.90;;
62880;SDS011;48969;49.934;8.596;2023-04-01T07:59:19;2.03;;;1.00;;
62880;SDS011;48969;49.934;8.596;2023-04-01T08:01:49;1.90;;;1.00;;
62880;SDS011;48969;49.934;8.596;2023-04-01T08:04:36;3.15;;;1.00;;
62880;SDS011;48969;49.934;8.596;2023-04-01T08:07:10;1.98;;;0.70;;
62880;SDS011;48969;49.934;8.596;2023-04-01T08:14:41;1.88;;;0.80;;
62880;SDS011;48969;49.934;8.596;2023-04-01T08:17:12;2.60;;;0.90;;
62880;SDS011;48969;49.934;8.596;2023-04-01T08:19:54;1.45;;;0.70;;
62880;SDS011;48969;49.934;8.596;2023-04-01T08:22:29;3.03;;;0.90;;
62880;SDS011;48969;49.934;8.596;2023-04-01T08:24:56;3.35;;;0.85;;
62880;SDS011;48969;49.934;8.596;2023-04-01T08:27:28;0.82;;;0.70;;
62880;SDS011;48969;49.934;8.596;2023-04-01T08:29:57;1.92;;;0.70;;
62880;SDS011;48969;49.934;8.596;2023-04-01T08:32:32;3.90;;;0.90;;
62880;SDS011;48969;49.934;8.596;2023-04-01T08:45:46;1.70;;;0.80;;
62880;SDS011;48969;49.934;8.596;2023-04-01T08:53:21;1.92;;;0.93;;
62880;SDS011;48969;49.934;8.596;2023-04-01T08:55:51;1.67;;;0.80;;
62880;SDS011;48969;49.934;8.596;2023-04-01T08:59:01;1.30;;;0.77;;
62880;SDS011;48969;49.934;8.596;2023-04-01T09:04:04;1.27;;;0.80;;
62880;SDS011;48969;49.934;8.596;2023-04-01T09:06:32;1.08;;;0.85;;
62880;SDS011;48969;49.934;8.596;2023-04-01T09:19:10;0.75;;;0.68;;
62880;SDS011;48969;49.934;8.596;2023-04-01T09:21:57;1.50;;;0.70;;
62880;SDS011;48969;49.934;8.596;2023-04-01T09:37:17;2.05;;;0.75;;
62880;SDS011;48969;49.934;8.596;2023-04-01T09:40:01;0.60;;;0.60;;
62880;SDS011;48969;49.934;8.596;2023-04-01T09:45:23;0.70;;;0.63;;
62880;SDS011;48969;49.934;8.596;2023-04-01T09:48:12;1.60;;;0.60;;
62880;SDS011;48969;49.934;8.596;2023-04-01T09:51:00;1.40;;;0.68;;
62880;SDS011;48969;49.934;8.596;2023-04-01T09:55:57;0.90;;;0.68;;
62880;SDS011;48969;49.934;8.596;2023-04-01T09:58:37;2.85;;;0.90;;
62880;SDS011;48969;49.934;8.596;2023-04-01T10:06:46;1.20;;;0.70;;
62880;SDS011;48969;49.934;8.596;2023-04-01T10:20:45;1.15;;;0.80;;
62880;SDS011;48969;49.934;8.596;2023-04-01T10:36:01;1.52;;;0.90;;
62880;SDS011;48969;49.934;8.596;2023-04-01T10:46:41;1.15;;;0.80;;
62880;SDS011;48969;49.934;8.596;2023-04-01T10:57:02;0.77;;;0.73;;
62880;SDS011;48969;49.934;8.596;2023-04-01T11:02:12;2.60;;;0.88;;
62880;SDS011;48969;49.934;8.596;2023-04-01T11:12:07;1.70;;;0.75;;
62880;SDS011;48969;49.934;8.596;2023-04-01T11:17:09;1.42;;;0.68;;
62880;SDS011;48969;49.934;8.596;2023-04-01T11:22:08;0.73;;;0.70;;
62880;SDS011;48969;49.934;8.596;2023-04-01T11:37:24;0.90;;;0.77;;
62880;SDS011;48969;49.934;8.596;2023-04-01T11:42:47;0.70;;;0.70;;
62880;SDS011;48969;49.934;8.596;2023-04-01T11:45:32;0.70;;;0.70;;
62880;SDS011;48969;49.934;8.596;2023-04-01T12:08:55;0.90;;;0.90;;
62880;SDS011;48969;49.934;8.596;2023-04-01T12:11:36;0.90;;;0.90;;
62880;SDS011;48969;49.934;8.596;2023-04-01T12:14:19;1.30;;;0.90;;
62880;SDS011;48969;49.934;8.596;2023-04-01T12:19:15;0.68;;;0.68;;
62880;SDS011;48969;49.934;8.596;2023-04-01T12:24:48;1.10;;;1.00;;
62880;SDS011;48969;49.934;8.596;2023-04-01T12:27:34;0.80;;;0.80;;
62880;SDS011;48969;49.934;8.596;2023-04-01T12:30:20;1.10;;;1.00;;
62880;SDS011;48969;49.934;8.596;2023-04-01T12:35:14;1.30;;;1.20;;
62880;SDS011;48969;49.934;8.596;2023-04-01T12:42:51;1.52;;;0.98;;
62880;SDS011;48969;49.934;8.596;2023-04-01T12:45:28;1.45;;;1.23;;
62880;SDS011;48969;49.934;8.596;2023-04-01T12:55:25;2.55;;;0.80;;
62880;SDS011;48969;49.934;8.596;2023-04-01T12:58:07;1.55;;;0.70;;
62880;SDS011;48969;49.934;8.596;2023-04-01T13:08:43;2.50;;;1.25;;
62880;SDS011;48969;49.934;8.596;2023-04-01T13:16:08;0.90;;;0.65;;
62880;SDS011;48969;49.934;8.596;2023-04-01T13:28:38;1.83;;;0.80;;
62880;SDS011;48969;49.934;8.596;2023-04-01T13:31:09;0.70;;;0.70;;
62880;SDS011;48969;49.934;8.596;2023-04-01T13:36:28;2.25;;;0.90;;
62880;SDS011;48969;49.934;8.596;2023-04-01T13:41:47;1.00;;;0.90;;
62880;SDS011;48969;49.934;8.596;2023-04-01T13:44:17;0.80;;;0.80;;
62880;SDS011;48969;49.934;8.596;2023-04-01T13:54:52;1.08;;;1.00;;
62880;SDS011;48969;49.934;8.596;2023-04-01T14:05:10;1.83;;;0.80;;
62880;SDS011;48969;49.934;8.596;2023-04-01T14:10:07;0.95;;;0.73;;
62880;SDS011;48969;49.934;8.596;2023-04-01T14:12:40;1.17;;;0.70;;
62880;SDS011;48969;49.934;8.596;2023-04-01T14:15:23;0.70;;;0.70;;
62880;SDS011;48969;49.934;8.596;2023-04-01T14:28:38;0.95;;;0.70;;
62880;SDS011;48969;49.934;8.596;2023-04-01T14:38:54;0.60;;;0.60;;
62880;SDS011;48969;49.934;8.596;2023-04-01T14:42:07;1.85;;;0.70;;
62880;SDS011;48969;49.934;8.596;2023-04-01T14:47:02;1.85;;;0.60;;
62880;SDS011;48969;49.934;8.596;2023-04-01T14:52:04;0.77;;;0.60;;
62880;SDS011;48969;49.934;8.596;2023-04-01T14:54:33;0.40;;;0.40;;
62880;SDS011;48969;49.934;8.596;2023-04-01T14:57:13;1.17;;;0.40;;
62880;SDS011;48969;49.934;8.596;2023-04-01T14:59:49;0.82;;;0.50;;
62880;SDS011;48969;49.934;8.596;2023-04-01T15:04:53;0.50;;;0.50;;
62880;SDS011;48969;49.934;8.596;2023-04-01T15:07:23;1.98;;;0.60;;
62880;SDS011;48969;49.934;8.596;2023-04-01T15:13:24;0.80;;;0.50;;
62880;SDS011;48969;49.934;8.596;2023-04-01T15:15:44;0.50;;;0.50;;
62880;SDS011;48969;49.934;8.596;2023-04-01T15:18:30;0.57;;;0.50;;
62880;SDS011;48969;49.934;8.596;2023-04-01T15:32:02;0.90;;;0.70;;
62880;SDS011;48969;49.934;8.596;2023-04-01T15:34:38;1.50;;;0.65;;
62880;SDS011;48969;49.934;8.596;2023-04-01T15:37:30;0.50;;;0.50;;
62880;SDS011;48969;49.934;8.596;2023-04-01T15:40:01;0.70;;;0.70;;
62880;SDS011;48969;49.934;8.596;2023-04-01T15:42:32;3.40;;;2.05;;
62880;SDS011;48969;49.934;8.596;2023-04-01T15:45:06;1.17;;;0.70;;
62880;SDS011;48969;49.934;8.596;2023-04-01T15:47:46;0.70;;;0.60;;
62880;SDS011;48969;49.934;8.596;2023-04-01T15:50:31;0.60;;;0.55;;
62880;SDS011;48969;49.934;8.596;2023-04-01T15:58:05;0.57;;;0.57;;
62880;SDS011;48969;49.934;8.596;2023-04-01T16:00:42;0.60;;;0.60;;
62880;SDS011;48969;49.934;8.596;2023-04-01T16:03:19;1.33;;;0.60;;
62880;SDS011;48969;49.934;8.596;2023-04-01T16:06:10;0.50;;;0.50;;
62880;SDS011;48969;49.934;8.596;2023-04-01T16:08:47;0.60;;;0.55;;
62880;SDS011;48969;49.934;8.596;2023-04-01T16:13:53;0.50;;;0.50;;
62880;SDS011;48969;49.934;8.596;2023-04-01T16:21:26;0.93;;;0.70;;
62880;SDS011;48969;49.934;8.596;2023-04-01T16:23:59;1.38;;;1.10;;
62880;SDS011;48969;49.934;8.596;2023-04-01T16:29:17;1.00;;;0.60;;
62880;SDS011;48969;49.934;8.596;2023-04-01T16:34:21;0.60;;;0.60;;
62880;SDS011;48969;49.934;8.596;2023-04-01T16:36:52;1.05;;;0.60;;
62880;SDS011;48969;49.934;8.596;2023-04-01T16:44:18;0.77;;;0.73;;
62880;SDS011;48969;49.934;8.596;2023-04-01T16:46:45;1.17;;;0.70;;
62880;SDS011;48969;49.934;8.596;2023-04-01T16:51:47;3.80;;;1.50;;
62880;SDS011;48969;49.934;8.596;2023-04-01T16:56:43;3.90;;;1.23;;
62880;SDS011;48969;49.934;8.596;2023-04-01T17:01:49;3.65;;;1.05;;
62880;SDS011;48969;49.934;8.596;2023-04-01T17:04:26;1.10;;;0.93;;
62880;SDS011;48969;49.934;8.596;2023-04-01T17:14:40;2.75;;;1.20;;
62880;SDS011;48969;49.934;8.596;2023-04-01T17:17:17;1.92;;;1.20;;
62880;SDS011;48969;49.934;8.596;2023-04-01T17:25:20;1.77;;;0.95;;
62880;SDS011;48969;49.934;8.596;2023-04-01T17:30:37;1.35;;;0.82;;
62880;SDS011;48969;49.934;8.596;2023-04-01T17:35:32;1.25;;;0.88;;
62880;SDS011;48969;49.934;8.596;2023-04-01T17:38:04;1.20;;;0.80;;
62880;SDS011;48969;49.934;8.596;2023-04-01T17:46:04;1.05;;;0.93;;
62880;SDS011;48969;49.934;8.596;2023-04-01T17:48:38;1.27;;;0.90;;
62880;SDS011;48969;49.934;8.596;2023-04-01T17:51:16;1.45;;;1.23;;
62880;SDS011;48969;49.934;8.596;2023-04-01T17:56:32;1.42;;;0.73;;
62880;SDS011;48969;49.934;8.596;2023-04-01T18:01:46;1.60;;;1.48;;
62880;SDS011;48969;49.934;8.596;2023-04-01T18:04:17;1.30;;;1.20;;
62880;SDS011;48969;49.934;8.596;2023-04-01T18:12:06;0.70;;;0.70;;
62880;SDS011;48969;49.934;8.596;2023-04-01T18:19:46;0.52;;;0.52;;
62880;SDS011;48969;49.934;8.596;2023-04-01T18:24:42;1.63;;;1.33;;
62880;SDS011;48969;49.934;8.596;2023-04-01T18:29:55;1.08;;;0.90;;
62880;SDS011;48969;49.934;8.596;2023-04-01T18:36:13;0.88;;;0.60;;
62880;SDS011;48969;49.934;8.596;2023-04-01T18:40:46;0.85;;;0.80;;
62880;SDS011;48969;49.934;8.596;2023-04-01T18:43:20;1.67;;;0.70;;
62880;SDS011;48969;49.934;8.596;2023-04-01T18:45:58;0.68;;;0.68;;
62880;SDS011;48969;49.934;8.596;2023-04-01T18:50:54;0.73;;;0.60;;
62880;SDS011;48969;49.934;8.596;2023-04-01T18:58:22;1.33;;;0.63;;
62880;SDS011;48969;49.934;8.596;2023-04-01T19:00:51;2.05;;;0.70;;
62880;SDS011;48969;49.934;8.596;2023-04-01T19:03:22;1.38;;;0.70;;
62880;SDS011;48969;49.934;8.596;2023-04-01T19:05:49;1.83;;;0.88;;
62880;SDS011;48969;49.934;8.596;2023-04-01T19:10:57;1.50;;;0.60;;
62880;SDS011;48969;49.934;8.596;2023-04-01T19:21:16;1.35;;;0.80;;
62880;SDS011;48969;49.934;8.596;2023-04-01T19:23:48;0.60;;;0.60;;
62880;SDS011;48969;49.934;8.596;2023-04-01T19:26:21;2.28;;;0.98;;
62880;SDS011;48969;49.934;8.596;2023-04-01T19:28:53;0.95;;;0.80;;
62880;SDS011;48969;49.934;8.596;2023-04-01T19:36:54;1.77;;;0.90;;
62880;SDS011;48969;49.934;8.596;2023-04-01T19:39:25;0.80;;;0.77;;
62880;SDS011;48969;49.934;8.596;2023-04-01T19:44:40;0.90;;;0.70;;
62880;SDS011;48969;49.934;8.596;2023-04-01T19:50:03;1.10;;;1.00;;
62880;SDS011;48969;49.934;8.596;2023-04-01T19:52:31;2.50;;;1.00;;
62880;SDS011;48969;49.934;8.596;2023-04-01T20:00:12;1.42;;;0.80;;
62880;SDS011;48969;49.934;8.596;2023-04-01T20:02:52;1.00;;;0.90;;
62880;SDS011;48969;49.934;8.596;2023-04-01T20:05:27;0.70;;;0.70;;
62880;SDS011;48969;49.934;8.596;2023-04-01T20:10:46;2.65;;;0.90;;
62880;SDS011;48969;49.934;8.596;2023-04-01T20:15:45;1.65;;;1.00;;
62880;SDS011;48969;49.934;8.596;2023-04-01T20:18:18;1.08;;;0.90;;
62880;SDS011;48969;49.934;8.596;2023-04-01T20:20:54;1.73;;;0.93;;
62880;SDS011;48969;49.934;8.596;2023-04-01T20:23:25;2.25;;;1.00;;
62880;SDS011;48969;49.934;8.596;2023-04-01T20:25:52;1.52;;;0.98;;
62880;SDS011;48969;49.934;8.596;2023-04-01T20:31:01;2.33;;;1.05;;
62880;SDS011;48969;49.934;8.596;2023-04-01T20:41:37;1.00;;;0.90;;
62880;SDS011;48969;49.934;8.596;2023-04-01T20:52:01;1.65;;;1.20;;
62880;SDS011;48969;49.934;8.596;2023-04-01T20:56:55;1.83;;;1.58;;
62880;SDS011;48969;49.934;8.596;2023-04-01T21:08:10;2.45;;;1.40;;
62880;SDS011;48969;49.934;8.596;2023-04-01T21:15:12;1.85;;;1.50;;
62880;SDS011;48969;49.934;8.596;2023-04-01T21:25:41;1.38;;;1.20;;
62880;SDS011;48969;49.934;8.596;2023-04-01T21:36:11;1.30;;;1.20;;
62880;SDS011;48969;49.934;8.596;2023-04-01T21:38:45;1.42;;;1.25;;
62880;SDS011;48969;49.934;8.596;2023-04-01T21:48:52;2.80;;;1.55;;
62880;SDS011;48969;49.934;8.596;2023-04-01T21:53:59;2.40;;;1.55;;
62880;SDS011;48969;49.934;8.596;2023-04-01T21:56:33;1.50;;;1.20;;
62880;SDS011;48969;49.934;8.596;2023-04-01T22:04:15;1.58;;;1.30;;
62880;SDS011;48969;49.934;8.596;2023-04-01T22:06:43;2.08;;;1.33;;
62880;SDS011;48969;49.934;8.596;2023-04-01T22:09:11;2.67;;;1.45;;
62880;SDS011;48969;49.934;8.596;2023-04-01T22:11:43;1.45;;;1.20;;
62880;SDS011;48969;49.934;8.596;2023-04-01T22:19:55;3.05;;;1.55;;
62880;SDS011;48969;49.934;8.596;2023-04-01T22:22:30;2.75;;;1.27;;
62880;SDS011;48969;49.934;8.596;2023-04-01T22:27:34;2.25;;;1.30;;
62880;SDS011;48969;49.934;8.596;2023-04-01T22:30:06;1.27;;;1.10;;
62880;SDS011;48969;49.934;8.596;2023-04-01T22:37:54;1.00;;;1.00;;
62880;SDS011;48969;49.934;8.596;2023-04-01T22:42:58;1.20;;;1.10;;
62880;SDS011;48969;49.934;8.596;2023-04-01T22:45:30;1.95;;;1.30;;
62880;SDS011;48969;49.934;8.596;2023-04-01T22:51:12;2.10;;;1.40;;
62880;SDS011;48969;49.934;8.596;2023-04-01T22:56:11;1.52;;;1.42;;
62880;SDS011;48969;49.934;8.596;2023-04-01T22:58:41;1.95;;;1.63;;
62880;SDS011;48969;49.934;8.596;2023-04-01T23:01:08;1.60;;;1.40;;
62880;SDS011;48969;49.934;8.596;2023-04-01T23:03:37;2.22;;;1.63;;
62880;SDS011;48969;49.934;8.596;2023-04-01T23:06:05;1.92;;;1.20;;
62880;SDS011;48969;49.934;8.596;2023-04-01T23:10:56;1.60;;;1.35;;
62880;SDS011;48969;49.934;8.596;2023-04-01T23:13:25;2.58;;;1.60;;
62880;SDS011;48969;49.934;8.596;2023-04-01T23:15:52;1.55;;;1.35;;
62880;SDS011;48969;49.934;8.596;2023-04-01T23:18:25;1.90;;;1.25;;
62880;SDS011;48969;49.934;8.596;2023-04-01T23:21:06;1.90;;;1.27;;
62880;SDS011;48969;49.934;8.596;2023-04-01T23:28:47;2.53;;;1.40;;
62880;SDS011;48969;49.934;8.596;2023-04-01T23:31:26;1.88;;;1.40;;
62880;SDS011;48969;49.934;8.596;2023-04-01T23:33:55;2.80;;;1.60;;
62880;SDS011;48969;49.934;8.596;2023-04-01T23:36:20;2.03;;;1.60;;
62880;SDS011;48969;49.934;8.596;2023-04-01T23:38:47;2.13;;;1.45;;
62880;SDS011;48969;49.934;8.596;2023-04-01T23:41:20;1.90;;;1.80;;
62880;SDS011;48969;49.934;8.596;2023-04-01T23:43:48;2.38;;;1.80;;
62880;SDS011;48969;49.934;8.596;2023-04-01T23:46:17;3.00;;;1.98;;
62880;SDS011;48969;49.934;8.596;2023-04-01T23:48:43;2.38;;;2.08;;
62880;SDS011;48969;49.934;8.596;2023-04-01T23:51:21;2.58;;;2.03;;
62880;SDS011;48969;49.934;8.596;2023-04-01T23:53:48;2.75;;;1.98;;
62880;SDS011;48969;49.934;8.596;2023-04-01T23:58:49;2.95;;;2.40;;
